Terminal Aerodrome Forecast
Issued by NWS Shreveport, LA

Home | Current Version | Previous Version | Text Only | Print | Product List | Glossary On
Versions: 1 2 3 4 5 6 7 8 9 10 11 12 13 14 15 16 17 18
000
FTUS44 KSHV 300521
TAFELD
TAF
KELD 300521Z 3006/0106 16018G20KT P6SM -RA BKN030 OVC040
     FM300700 18012KT P6SM -TSRA OVC020CB
      TEMPO 3007/3010 21010KT +TSRA OVC020CB
     FM301000 21012KT P6SM VCSH OVC050
     FM301800 24014G22KT P6SM SKC=

USA.gov is the U.S. government's official web portal to all federal, state and local government web resources and services.